sensor_id;sensor_type;location;lat;lon;timestamp;P1;durP1;ratioP1;P2;durP2;ratioP2
5622;SDS011;2833;50.432;10.706;2023-01-16T00:00:40;4.60;;;1.80;;
5622;SDS011;2833;50.432;10.706;2023-01-16T00:03:05;2.60;;;1.73;;
5622;SDS011;2833;50.432;10.706;2023-01-16T00:05:30;1.43;;;1.10;;
5622;SDS011;2833;50.432;10.706;2023-01-16T00:07:56;2.50;;;1.50;;
5622;SDS011;2833;50.432;10.706;2023-01-16T00:10:21;1.90;;;1.33;;
5622;SDS011;2833;50.432;10.706;2023-01-16T00:12:49;1.43;;;1.33;;
5622;SDS011;2833;50.432;10.706;2023-01-16T00:15:14;1.33;;;1.23;;
5622;SDS011;2833;50.432;10.706;2023-01-16T00:17:39;1.40;;;1.10;;
5622;SDS011;2833;50.432;10.706;2023-01-16T00:20:05;1.90;;;1.30;;
5622;SDS011;2833;50.432;10.706;2023-01-16T00:22:30;1.90;;;1.20;;
5622;SDS011;2833;50.432;10.706;2023-01-16T00:24:55;3.47;;;1.20;;
5622;SDS011;2833;50.432;10.706;2023-01-16T00:27:20;5.13;;;1.70;;
5622;SDS011;2833;50.432;10.706;2023-01-16T00:29:46;2.23;;;1.10;;
5622;SDS011;2833;50.432;10.706;2023-01-16T00:32:11;1.50;;;1.37;;
5622;SDS011;2833;50.432;10.706;2023-01-16T00:34:36;4.90;;;1.43;;
5622;SDS011;2833;50.432;10.706;2023-01-16T00:37:01;4.53;;;1.50;;
5622;SDS011;2833;50.432;10.706;2023-01-16T00:39:26;4.90;;;2.63;;
5622;SDS011;2833;50.432;10.706;2023-01-16T00:41:52;2.23;;;1.47;;
5622;SDS011;2833;50.432;10.706;2023-01-16T00:44:17;6.80;;;2.17;;
5622;SDS011;2833;50.432;10.706;2023-01-16T00:46:44;9.87;;;4.53;;
5622;SDS011;2833;50.432;10.706;2023-01-16T00:49:09;6.50;;;3.10;;
5622;SDS011;2833;50.432;10.706;2023-01-16T00:51:34;3.93;;;1.60;;
5622;SDS011;2833;50.432;10.706;2023-01-16T00:53:59;3.03;;;1.83;;
5622;SDS011;2833;50.432;10.706;2023-01-16T00:56:24;2.57;;;1.63;;
5622;SDS011;2833;50.432;10.706;2023-01-16T00:58:50;1.67;;;1.20;;
5622;SDS011;2833;50.432;10.706;2023-01-16T01:01:15;3.33;;;2.03;;
5622;SDS011;2833;50.432;10.706;2023-01-16T01:03:40;1.30;;;1.17;;
5622;SDS011;2833;50.432;10.706;2023-01-16T01:06:06;1.97;;;1.53;;
5622;SDS011;2833;50.432;10.706;2023-01-16T01:08:31;2.57;;;1.60;;
5622;SDS011;2833;50.432;10.706;2023-01-16T01:11:04;2.60;;;1.10;;
5622;SDS011;2833;50.432;10.706;2023-01-16T01:13:30;3.43;;;1.20;;
5622;SDS011;2833;50.432;10.706;2023-01-16T01:15:55;1.97;;;1.10;;
5622;SDS011;2833;50.432;10.706;2023-01-16T01:18:20;4.43;;;1.20;;
5622;SDS011;2833;50.432;10.706;2023-01-16T01:20:46;1.20;;;1.10;;
5622;SDS011;2833;50.432;10.706;2023-01-16T01:23:11;1.80;;;1.47;;
5622;SDS011;2833;50.432;10.706;2023-01-16T01:25:39;1.20;;;1.10;;
5622;SDS011;2833;50.432;10.706;2023-01-16T01:28:04;1.53;;;1.30;;
5622;SDS011;2833;50.432;10.706;2023-01-16T01:30:29;1.40;;;1.17;;
5622;SDS011;2833;50.432;10.706;2023-01-16T01:32:54;3.30;;;1.30;;
5622;SDS011;2833;50.432;10.706;2023-01-16T01:35:20;2.50;;;1.10;;
5622;SDS011;2833;50.432;10.706;2023-01-16T01:37:45;2.07;;;1.37;;
5622;SDS011;2833;50.432;10.706;2023-01-16T01:40:10;2.13;;;1.23;;
5622;SDS011;2833;50.432;10.706;2023-01-16T01:42:37;2.10;;;1.20;;
5622;SDS011;2833;50.432;10.706;2023-01-16T01:47:36;3.77;;;1.30;;
5622;SDS011;2833;50.432;10.706;2023-01-16T01:50:04;1.33;;;1.10;;
5622;SDS011;2833;50.432;10.706;2023-01-16T01:52:33;2.00;;;1.37;;
5622;SDS011;2833;50.432;10.706;2023-01-16T01:55:00;1.33;;;1.10;;
5622;SDS011;2833;50.432;10.706;2023-01-16T01:57:33;2.80;;;1.40;;
5622;SDS011;2833;50.432;10.706;2023-01-16T02:00:02;2.40;;;1.13;;
5622;SDS011;2833;50.432;10.706;2023-01-16T02:02:29;1.60;;;1.50;;
5622;SDS011;2833;50.432;10.706;2023-01-16T02:04:56;4.13;;;1.60;;
5622;SDS011;2833;50.432;10.706;2023-01-16T02:07:22;1.83;;;1.10;;
5622;SDS011;2833;50.432;10.706;2023-01-16T02:09:47;2.10;;;1.20;;
5622;SDS011;2833;50.432;10.706;2023-01-16T02:12:13;1.50;;;1.27;;
5622;SDS011;2833;50.432;10.706;2023-01-16T02:14:40;2.80;;;1.30;;
5622;SDS011;2833;50.432;10.706;2023-01-16T02:17:10;2.43;;;1.20;;
5622;SDS011;2833;50.432;10.706;2023-01-16T02:27:46;1.20;;;1.10;;
5622;SDS011;2833;50.432;10.706;2023-01-16T02:32:59;1.57;;;1.20;;
5622;SDS011;2833;50.432;10.706;2023-01-16T02:35:29;4.07;;;1.43;;
5622;SDS011;2833;50.432;10.706;2023-01-16T02:38:01;1.90;;;1.33;;
5622;SDS011;2833;50.432;10.706;2023-01-16T02:40:35;1.67;;;1.20;;
5622;SDS011;2833;50.432;10.706;2023-01-16T02:45:49;1.87;;;1.27;;
5622;SDS011;2833;50.432;10.706;2023-01-16T02:48:28;2.90;;;1.17;;
5622;SDS011;2833;50.432;10.706;2023-01-16T02:50:57;1.77;;;1.20;;
5622;SDS011;2833;50.432;10.706;2023-01-16T02:53:28;2.53;;;1.60;;
5622;SDS011;2833;50.432;10.706;2023-01-16T02:55:55;5.47;;;1.53;;
5622;SDS011;2833;50.432;10.706;2023-01-16T02:58:22;3.33;;;1.53;;
5622;SDS011;2833;50.432;10.706;2023-01-16T03:00:55;1.40;;;1.30;;
5622;SDS011;2833;50.432;10.706;2023-01-16T03:08:40;4.30;;;1.57;;
5622;SDS011;2833;50.432;10.706;2023-01-16T03:11:11;4.10;;;1.73;;
5622;SDS011;2833;50.432;10.706;2023-01-16T03:18:59;3.73;;;1.83;;
5622;SDS011;2833;50.432;10.706;2023-01-16T03:24:06;5.83;;;1.83;;
5622;SDS011;2833;50.432;10.706;2023-01-16T03:29:07;2.43;;;1.50;;
5622;SDS011;2833;50.432;10.706;2023-01-16T03:34:11;2.00;;;1.50;;
5622;SDS011;2833;50.432;10.706;2023-01-16T03:39:05;2.35;;;1.65;;
5622;SDS011;2833;50.432;10.706;2023-01-16T03:41:32;1.60;;;1.50;;
5622;SDS011;2833;50.432;10.706;2023-01-16T03:44:03;2.60;;;1.60;;
5622;SDS011;2833;50.432;10.706;2023-01-16T03:46:31;2.13;;;1.30;;
5622;SDS011;2833;50.432;10.706;2023-01-16T03:49:11;2.40;;;1.30;;
5622;SDS011;2833;50.432;10.706;2023-01-16T03:51:41;3.10;;;1.57;;
5622;SDS011;2833;50.432;10.706;2023-01-16T03:54:10;2.47;;;1.43;;
5622;SDS011;2833;50.432;10.706;2023-01-16T03:56:40;3.93;;;1.50;;
5622;SDS011;2833;50.432;10.706;2023-01-16T03:59:09;2.63;;;2.00;;
5622;SDS011;2833;50.432;10.706;2023-01-16T04:01:44;4.83;;;1.40;;
5622;SDS011;2833;50.432;10.706;2023-01-16T04:04:25;1.83;;;1.70;;
5622;SDS011;2833;50.432;10.706;2023-01-16T04:06:52;2.67;;;1.37;;
5622;SDS011;2833;50.432;10.706;2023-01-16T04:09:23;2.00;;;1.40;;
5622;SDS011;2833;50.432;10.706;2023-01-16T04:11:50;1.47;;;1.20;;
5622;SDS011;2833;50.432;10.706;2023-01-16T04:14:18;1.93;;;1.40;;
5622;SDS011;2833;50.432;10.706;2023-01-16T04:16:45;4.73;;;1.73;;
5622;SDS011;2833;50.432;10.706;2023-01-16T04:19:11;5.23;;;1.37;;
5622;SDS011;2833;50.432;10.706;2023-01-16T04:21:37;2.03;;;1.53;;
5622;SDS011;2833;50.432;10.706;2023-01-16T04:24:03;1.97;;;1.30;;
5622;SDS011;2833;50.432;10.706;2023-01-16T04:26:28;2.03;;;1.40;;
5622;SDS011;2833;50.432;10.706;2023-01-16T04:28:53;3.63;;;1.30;;
5622;SDS011;2833;50.432;10.706;2023-01-16T04:31:21;2.10;;;1.30;;
5622;SDS011;2833;50.432;10.706;2023-01-16T04:33:46;3.60;;;1.37;;
5622;SDS011;2833;50.432;10.706;2023-01-16T04:36:11;1.67;;;1.50;;
5622;SDS011;2833;50.432;10.706;2023-01-16T04:38:37;1.87;;;1.57;;
5622;SDS011;2833;50.432;10.706;2023-01-16T04:41:02;1.70;;;1.57;;
5622;SDS011;2833;50.432;10.706;2023-01-16T04:43:27;3.87;;;1.60;;
5622;SDS011;2833;50.432;10.706;2023-01-16T04:45:52;1.73;;;1.30;;
5622;SDS011;2833;50.432;10.706;2023-01-16T04:48:17;6.13;;;1.43;;
5622;SDS011;2833;50.432;10.706;2023-01-16T04:50:42;1.87;;;1.50;;
5622;SDS011;2833;50.432;10.706;2023-01-16T04:53:08;1.83;;;1.53;;
5622;SDS011;2833;50.432;10.706;2023-01-16T04:55:33;2.00;;;1.37;;
5622;SDS011;2833;50.432;10.706;2023-01-16T04:57:58;1.90;;;1.23;;
5622;SDS011;2833;50.432;10.706;2023-01-16T05:00:23;2.60;;;1.50;;
5622;SDS011;2833;50.432;10.706;2023-01-16T05:02:48;2.73;;;1.33;;
5622;SDS011;2833;50.432;10.706;2023-01-16T05:05:14;1.90;;;1.57;;
5622;SDS011;2833;50.432;10.706;2023-01-16T05:07:39;1.90;;;1.40;;
5622;SDS011;2833;50.432;10.706;2023-01-16T05:10:04;1.97;;;1.60;;
5622;SDS011;2833;50.432;10.706;2023-01-16T05:12:29;1.93;;;1.47;;
5622;SDS011;2833;50.432;10.706;2023-01-16T05:14:55;2.50;;;1.27;;
5622;SDS011;2833;50.432;10.706;2023-01-16T05:17:20;3.17;;;1.40;;
5622;SDS011;2833;50.432;10.706;2023-01-16T05:19:49;1.53;;;1.30;;
5622;SDS011;2833;50.432;10.706;2023-01-16T05:22:14;1.97;;;1.40;;
5622;SDS011;2833;50.432;10.706;2023-01-16T05:24:39;1.40;;;1.30;;
5622;SDS011;2833;50.432;10.706;2023-01-16T05:27:04;3.07;;;1.37;;
5622;SDS011;2833;50.432;10.706;2023-01-16T05:29:30;1.50;;;1.40;;
5622;SDS011;2833;50.432;10.706;2023-01-16T05:31:55;2.50;;;1.27;;
5622;SDS011;2833;50.432;10.706;2023-01-16T05:34:20;1.77;;;1.20;;
5622;SDS011;2833;50.432;10.706;2023-01-16T05:36:45;2.83;;;1.17;;
5622;SDS011;2833;50.432;10.706;2023-01-16T05:39:10;4.60;;;1.63;;
5622;SDS011;2833;50.432;10.706;2023-01-16T05:41:35;8.33;;;2.30;;
5622;SDS011;2833;50.432;10.706;2023-01-16T05:44:01;3.93;;;2.00;;
5622;SDS011;2833;50.432;10.706;2023-01-16T05:46:26;2.57;;;1.60;;
5622;SDS011;2833;50.432;10.706;2023-01-16T05:48:51;3.27;;;1.67;;
5622;SDS011;2833;50.432;10.706;2023-01-16T05:51:16;2.70;;;1.60;;
5622;SDS011;2833;50.432;10.706;2023-01-16T05:53:42;1.73;;;1.60;;
5622;SDS011;2833;50.432;10.706;2023-01-16T05:56:08;2.60;;;1.67;;
5622;SDS011;2833;50.432;10.706;2023-01-16T05:58:33;3.50;;;2.00;;
5622;SDS011;2833;50.432;10.706;2023-01-16T06:00:59;3.73;;;1.90;;
5622;SDS011;2833;50.432;10.706;2023-01-16T06:05:51;1.87;;;1.77;;
5622;SDS011;2833;50.432;10.706;2023-01-16T06:08:17;1.73;;;1.40;;
5622;SDS011;2833;50.432;10.706;2023-01-16T06:10:42;3.70;;;1.57;;
5622;SDS011;2833;50.432;10.706;2023-01-16T06:13:09;2.40;;;1.20;;
5622;SDS011;2833;50.432;10.706;2023-01-16T06:15:34;5.83;;;1.73;;
5622;SDS011;2833;50.432;10.706;2023-01-16T06:17:59;6.00;;;2.60;;
5622;SDS011;2833;50.432;10.706;2023-01-16T06:20:24;1.47;;;1.37;;
5622;SDS011;2833;50.432;10.706;2023-01-16T06:22:50;3.27;;;1.10;;
5622;SDS011;2833;50.432;10.706;2023-01-16T06:25:15;1.40;;;1.30;;
5622;SDS011;2833;50.432;10.706;2023-01-16T06:27:40;1.30;;;1.20;;
5622;SDS011;2833;50.432;10.706;2023-01-16T06:30:05;1.93;;;1.30;;
5622;SDS011;2833;50.432;10.706;2023-01-16T06:32:31;2.33;;;1.20;;
5622;SDS011;2833;50.432;10.706;2023-01-16T06:34:56;1.70;;;1.37;;
5622;SDS011;2833;50.432;10.706;2023-01-16T06:37:21;2.33;;;1.53;;
5622;SDS011;2833;50.432;10.706;2023-01-16T06:39:46;3.97;;;1.57;;
5622;SDS011;2833;50.432;10.706;2023-01-16T06:42:11;2.70;;;1.37;;
5622;SDS011;2833;50.432;10.706;2023-01-16T06:44:37;2.07;;;1.40;;
5622;SDS011;2833;50.432;10.706;2023-01-16T06:47:02;1.40;;;1.30;;
5622;SDS011;2833;50.432;10.706;2023-01-16T06:49:27;2.60;;;1.30;;
5622;SDS011;2833;50.432;10.706;2023-01-16T06:51:53;2.40;;;1.23;;
5622;SDS011;2833;50.432;10.706;2023-01-16T06:54:18;2.20;;;1.20;;
5622;SDS011;2833;50.432;10.706;2023-01-16T06:56:43;1.37;;;1.10;;
5622;SDS011;2833;50.432;10.706;2023-01-16T06:59:08;1.37;;;1.23;;
5622;SDS011;2833;50.432;10.706;2023-01-16T07:01:34;2.80;;;1.50;;
5622;SDS011;2833;50.432;10.706;2023-01-16T07:03:59;2.80;;;1.80;;
5622;SDS011;2833;50.432;10.706;2023-01-16T07:06:24;4.30;;;1.43;;
5622;SDS011;2833;50.432;10.706;2023-01-16T07:08:49;3.40;;;1.30;;
5622;SDS011;2833;50.432;10.706;2023-01-16T07:11:16;1.87;;;1.33;;
5622;SDS011;2833;50.432;10.706;2023-01-16T07:13:41;1.67;;;1.33;;
5622;SDS011;2833;50.432;10.706;2023-01-16T07:16:08;3.73;;;1.60;;
5622;SDS011;2833;50.432;10.706;2023-01-16T07:18:53;1.63;;;1.53;;
5622;SDS011;2833;50.432;10.706;2023-01-16T07:21:50;2.13;;;1.70;;
5622;SDS011;2833;50.432;10.706;2023-01-16T07:24:35;1.60;;;1.40;;
5622;SDS011;2833;50.432;10.706;2023-01-16T07:27:03;2.20;;;1.50;;
5622;SDS011;2833;50.432;10.706;2023-01-16T07:29:29;3.30;;;1.80;;
5622;SDS011;2833;50.432;10.706;2023-01-16T07:31:56;5.43;;;1.80;;
5622;SDS011;2833;50.432;10.706;2023-01-16T07:34:21;3.00;;;1.80;;
5622;SDS011;2833;50.432;10.706;2023-01-16T07:36:47;2.73;;;1.50;;
5622;SDS011;2833;50.432;10.706;2023-01-16T07:39:12;7.30;;;1.77;;
5622;SDS011;2833;50.432;10.706;2023-01-16T07:41:37;1.20;;;1.10;;
5622;SDS011;2833;50.432;10.706;2023-01-16T07:44:02;3.80;;;1.47;;
5622;SDS011;2833;50.432;10.706;2023-01-16T07:46:28;1.53;;;1.40;;
5622;SDS011;2833;50.432;10.706;2023-01-16T07:48:53;3.63;;;1.60;;
5622;SDS011;2833;50.432;10.706;2023-01-16T07:51:20;4.40;;;2.00;;
5622;SDS011;2833;50.432;10.706;2023-01-16T07:53:45;1.60;;;1.50;;
5622;SDS011;2833;50.432;10.706;2023-01-16T07:56:10;1.73;;;1.63;;
5622;SDS011;2833;50.432;10.706;2023-01-16T07:58:35;1.87;;;1.73;;
5622;SDS011;2833;50.432;10.706;2023-01-16T08:01:02;3.60;;;2.80;;
5622;SDS011;2833;50.432;10.706;2023-01-16T08:03:28;1.57;;;1.47;;
5622;SDS011;2833;50.432;10.706;2023-01-16T08:05:56;3.63;;;2.40;;
5622;SDS011;2833;50.432;10.706;2023-01-16T08:08:22;1.90;;;1.70;;
5622;SDS011;2833;50.432;10.706;2023-01-16T08:10:52;2.60;;;1.50;;
5622;SDS011;2833;50.432;10.706;2023-01-16T08:13:17;2.27;;;1.37;;
5622;SDS011;2833;50.432;10.706;2023-01-16T08:15:42;2.23;;;1.50;;
5622;SDS011;2833;50.432;10.706;2023-01-16T08:18:07;1.57;;;1.10;;
5622;SDS011;2833;50.432;10.706;2023-01-16T08:20:33;4.27;;;1.93;;
5622;SDS011;2833;50.432;10.706;2023-01-16T08:22:58;2.93;;;2.00;;
5622;SDS011;2833;50.432;10.706;2023-01-16T08:25:25;3.80;;;2.30;;
5622;SDS011;2833;50.432;10.706;2023-01-16T08:27:50;4.53;;;1.93;;
5622;SDS011;2833;50.432;10.706;2023-01-16T08:30:16;2.43;;;2.07;;
5622;SDS011;2833;50.432;10.706;2023-01-16T08:32:41;5.57;;;3.23;;
5622;SDS011;2833;50.432;10.706;2023-01-16T08:35:07;4.73;;;2.30;;
5622;SDS011;2833;50.432;10.706;2023-01-16T08:37:32;5.90;;;3.17;;
5622;SDS011;2833;50.432;10.706;2023-01-16T08:39:58;3.37;;;2.77;;
5622;SDS011;2833;50.432;10.706;2023-01-16T08:42:23;4.23;;;3.20;;
5622;SDS011;2833;50.432;10.706;2023-01-16T08:45:11;5.97;;;3.90;;
5622;SDS011;2833;50.432;10.706;2023-01-16T08:47:54;10.53;;;5.47;;
5622;SDS011;2833;50.432;10.706;2023-01-16T08:50:55;3.40;;;2.03;;
5622;SDS011;2833;50.432;10.706;2023-01-16T08:53:40;4.17;;;2.93;;
5622;SDS011;2833;50.432;10.706;2023-01-16T08:56:05;2.50;;;1.50;;
5622;SDS011;2833;50.432;10.706;2023-01-16T08:58:30;2.60;;;2.07;;
5622;SDS011;2833;50.432;10.706;2023-01-16T09:00:56;2.13;;;1.93;;
5622;SDS011;2833;50.432;10.706;2023-01-16T09:03:21;5.23;;;2.47;;
5622;SDS011;2833;50.432;10.706;2023-01-16T09:05:46;1.83;;;1.60;;
5622;SDS011;2833;50.432;10.706;2023-01-16T09:08:11;1.67;;;1.37;;
5622;SDS011;2833;50.432;10.706;2023-01-16T09:10:37;5.00;;;2.10;;
5622;SDS011;2833;50.432;10.706;2023-01-16T09:13:02;10.17;;;4.70;;
5622;SDS011;2833;50.432;10.706;2023-01-16T09:15:46;2.83;;;2.20;;
5622;SDS011;2833;50.432;10.706;2023-01-16T09:18:11;7.90;;;6.20;;
5622;SDS011;2833;50.432;10.706;2023-01-16T09:20:36;4.60;;;3.73;;
5622;SDS011;2833;50.432;10.706;2023-01-16T09:23:02;1.70;;;1.60;;
5622;SDS011;2833;50.432;10.706;2023-01-16T09:25:28;3.57;;;2.20;;
5622;SDS011;2833;50.432;10.706;2023-01-16T09:27:54;1.93;;;1.13;;
5622;SDS011;2833;50.432;10.706;2023-01-16T09:30:19;3.43;;;1.50;;
5622;SDS011;2833;50.432;10.706;2023-01-16T09:32:45;2.90;;;2.70;;
5622;SDS011;2833;50.432;10.706;2023-01-16T09:35:10;2.87;;;2.57;;
5622;SDS011;2833;50.432;10.706;2023-01-16T09:37:35;1.90;;;1.40;;
5622;SDS011;2833;50.432;10.706;2023-01-16T09:40:00;3.00;;;1.33;;
5622;SDS011;2833;50.432;10.706;2023-01-16T09:42:36;1.87;;;1.77;;
5622;SDS011;2833;50.432;10.706;2023-01-16T09:45:28;2.73;;;2.07;;
5622;SDS011;2833;50.432;10.706;2023-01-16T09:47:56;10.20;;;4.57;;
5622;SDS011;2833;50.432;10.706;2023-01-16T09:50:26;3.83;;;2.37;;
5622;SDS011;2833;50.432;10.706;2023-01-16T09:52:53;2.90;;;1.80;;
5622;SDS011;2833;50.432;10.706;2023-01-16T09:55:44;1.40;;;1.30;;
5622;SDS011;2833;50.432;10.706;2023-01-16T09:58:36;1.50;;;1.40;;
5622;SDS011;2833;50.432;10.706;2023-01-16T10:01:11;5.57;;;1.60;;
5622;SDS011;2833;50.432;10.706;2023-01-16T10:03:38;1.37;;;1.17;;
5622;SDS011;2833;50.432;10.706;2023-01-16T10:11:06;2.35;;;1.40;;
5622;SDS011;2833;50.432;10.706;2023-01-16T10:13:46;2.27;;;1.80;;
5622;SDS011;2833;50.432;10.706;2023-01-16T10:24:05;3.17;;;1.87;;
5622;SDS011;2833;50.432;10.706;2023-01-16T10:29:22;2.57;;;1.77;;
5622;SDS011;2833;50.432;10.706;2023-01-16T10:31:48;2.73;;;2.00;;
5622;SDS011;2833;50.432;10.706;2023-01-16T10:34:19;1.30;;;1.20;;
5622;SDS011;2833;50.432;10.706;2023-01-16T10:36:47;5.03;;;2.60;;
5622;SDS011;2833;50.432;10.706;2023-01-16T10:39:13;1.63;;;1.40;;
5622;SDS011;2833;50.432;10.706;2023-01-16T10:41:44;3.60;;;2.40;;
5622;SDS011;2833;50.432;10.706;2023-01-16T10:44:33;2.87;;;2.10;;
5622;SDS011;2833;50.432;10.706;2023-01-16T10:47:18;8.00;;;4.47;;
5622;SDS011;2833;50.432;10.706;2023-01-16T10:50:03;4.63;;;1.80;;
5622;SDS011;2833;50.432;10.706;2023-01-16T10:52:29;1.93;;;1.70;;
5622;SDS011;2833;50.432;10.706;2023-01-16T10:54:55;1.83;;;1.53;;
5622;SDS011;2833;50.432;10.706;2023-01-16T10:57:21;3.97;;;2.60;;
5622;SDS011;2833;50.432;10.706;2023-01-16T10:59:47;2.90;;;2.23;;
5622;SDS011;2833;50.432;10.706;2023-01-16T11:02:17;2.37;;;1.70;;
5622;SDS011;2833;50.432;10.706;2023-01-16T11:04:48;9.50;;;4.63;;
5622;SDS011;2833;50.432;10.706;2023-01-16T11:07:14;4.63;;;2.70;;
5622;SDS011;2833;50.432;10.706;2023-01-16T11:09:39;4.80;;;2.40;;
5622;SDS011;2833;50.432;10.706;2023-01-16T11:12:08;2.93;;;2.10;;
5622;SDS011;2833;50.432;10.706;2023-01-16T11:14:53;2.20;;;2.00;;
5622;SDS011;2833;50.432;10.706;2023-01-16T11:17:52;2.00;;;1.80;;
5622;SDS011;2833;50.432;10.706;2023-01-16T11:20:36;1.90;;;1.23;;
5622;SDS011;2833;50.432;10.706;2023-01-16T11:23:15;3.70;;;3.00;;
5622;SDS011;2833;50.432;10.706;2023-01-16T11:25:41;1.90;;;1.80;;
5622;SDS011;2833;50.432;10.706;2023-01-16T11:28:07;1.43;;;1.33;;
5622;SDS011;2833;50.432;10.706;2023-01-16T11:30:33;6.23;;;1.40;;
5622;SDS011;2833;50.432;10.706;2023-01-16T11:33:01;2.90;;;1.63;;
5622;SDS011;2833;50.432;10.706;2023-01-16T11:35:32;15.03;;;8.27;;
5622;SDS011;2833;50.432;10.706;2023-01-16T11:37:58;34.23;;;18.10;;
5622;SDS011;2833;50.432;10.706;2023-01-16T11:40:24;10.80;;;7.00;;
5622;SDS011;2833;50.432;10.706;2023-01-16T11:42:54;4.00;;;2.47;;
5622;SDS011;2833;50.432;10.706;2023-01-16T11:45:46;10.30;;;5.93;;
5622;SDS011;2833;50.432;10.706;2023-01-16T11:48:27;2.33;;;1.90;;
5622;SDS011;2833;50.432;10.706;2023-01-16T11:50:56;10.60;;;4.57;;
5622;SDS011;2833;50.432;10.706;2023-01-16T11:53:22;1.67;;;1.57;;
5622;SDS011;2833;50.432;10.706;2023-01-16T11:55:56;5.27;;;2.00;;
5622;SDS011;2833;50.432;10.706;2023-01-16T12:00:57;8.50;;;5.00;;
5622;SDS011;2833;50.432;10.706;2023-01-16T12:06:18;6.23;;;3.80;;
5622;SDS011;2833;50.432;10.706;2023-01-16T12:11:47;3.73;;;2.33;;
5622;SDS011;2833;50.432;10.706;2023-01-16T12:27:16;3.03;;;2.33;;
5622;SDS011;2833;50.432;10.706;2023-01-16T12:37:17;1.90;;;1.70;;
5622;SDS011;2833;50.432;10.706;2023-01-16T12:42:26;1.52;;;1.20;;
5622;SDS011;2833;50.432;10.706;2023-01-16T12:45:19;1.20;;;1.13;;
5622;SDS011;2833;50.432;10.706;2023-01-16T12:47:51;1.47;;;1.37;;
5622;SDS011;2833;50.432;10.706;2023-01-16T12:50:36;2.53;;;1.40;;
5622;SDS011;2833;50.432;10.706;2023-01-16T12:58:16;1.98;;;1.35;;
5622;SDS011;2833;50.432;10.706;2023-01-16T13:00:47;4.20;;;2.00;;
5622;SDS011;2833;50.432;10.706;2023-01-16T13:05:39;3.97;;;2.75;;
5622;SDS011;2833;50.432;10.706;2023-01-16T13:08:09;3.00;;;2.60;;
5622;SDS011;2833;50.432;10.706;2023-01-16T13:10:36;13.60;;;7.50;;
5622;SDS011;2833;50.432;10.706;2023-01-16T13:13:27;9.33;;;5.20;;
5622;SDS011;2833;50.432;10.706;2023-01-16T13:20:59;3.33;;;2.70;;
5622;SDS011;2833;50.432;10.706;2023-01-16T13:23:30;10.20;;;2.70;;
5622;SDS011;2833;50.432;10.706;2023-01-16T13:25:58;2.60;;;2.40;;
5622;SDS011;2833;50.432;10.706;2023-01-16T13:31:03;5.00;;;2.33;;
5622;SDS011;2833;50.432;10.706;2023-01-16T13:33:31;3.67;;;2.73;;
5622;SDS011;2833;50.432;10.706;2023-01-16T13:36:10;7.00;;;3.77;;
5622;SDS011;2833;50.432;10.706;2023-01-16T13:41:30;1.50;;;1.27;;
5622;SDS011;2833;50.432;10.706;2023-01-16T13:44:15;3.67;;;2.33;;
5622;SDS011;2833;50.432;10.706;2023-01-16T13:47:13;1.90;;;1.80;;
5622;SDS011;2833;50.432;10.706;2023-01-16T13:49:40;2.10;;;1.83;;
5622;SDS011;2833;50.432;10.706;2023-01-16T13:52:11;3.17;;;2.30;;
5622;SDS011;2833;50.432;10.706;2023-01-16T13:54:41;2.77;;;2.47;;
5622;SDS011;2833;50.432;10.706;2023-01-16T13:57:08;2.23;;;1.43;;
5622;SDS011;2833;50.432;10.706;2023-01-16T14:02:26;2.07;;;1.37;;
5622;SDS011;2833;50.432;10.706;2023-01-16T14:15:53;5.80;;;3.90;;
5622;SDS011;2833;50.432;10.706;2023-01-16T14:21:03;2.77;;;2.00;;
5622;SDS011;2833;50.432;10.706;2023-01-16T14:23:30;2.67;;;1.80;;
5622;SDS011;2833;50.432;10.706;2023-01-16T14:26:19;2.07;;;1.70;;
5622;SDS011;2833;50.432;10.706;2023-01-16T14:28:48;2.70;;;1.60;;
5622;SDS011;2833;50.432;10.706;2023-01-16T14:31:23;2.20;;;1.30;;
5622;SDS011;2833;50.432;10.706;2023-01-16T14:33:49;3.37;;;1.80;;
5622;SDS011;2833;50.432;10.706;2023-01-16T14:36:14;1.83;;;1.73;;
5622;SDS011;2833;50.432;10.706;2023-01-16T14:38:43;3.73;;;2.37;;
5622;SDS011;2833;50.432;10.706;2023-01-16T14:41:11;2.30;;;2.00;;
5622;SDS011;2833;50.432;10.706;2023-01-16T14:46:53;3.70;;;2.43;;
5622;SDS011;2833;50.432;10.706;2023-01-16T14:55:24;4.60;;;2.57;;
5622;SDS011;2833;50.432;10.706;2023-01-16T14:57:49;2.80;;;2.23;;
5622;SDS011;2833;50.432;10.706;2023-01-16T15:00:16;4.87;;;2.27;;
5622;SDS011;2833;50.432;10.706;2023-01-16T15:02:45;6.20;;;3.17;;
5622;SDS011;2833;50.432;10.706;2023-01-16T15:05:12;4.57;;;2.60;;
5622;SDS011;2833;50.432;10.706;2023-01-16T15:07:43;10.20;;;4.10;;
5622;SDS011;2833;50.432;10.706;2023-01-16T15:10:13;6.80;;;3.53;;
5622;SDS011;2833;50.432;10.706;2023-01-16T15:12:40;3.37;;;2.10;;
5622;SDS011;2833;50.432;10.706;2023-01-16T15:15:06;6.40;;;3.50;;
5622;SDS011;2833;50.432;10.706;2023-01-16T15:17:43;7.03;;;3.17;;
5622;SDS011;2833;50.432;10.706;2023-01-16T15:20:27;14.20;;;4.53;;
5622;SDS011;2833;50.432;10.706;2023-01-16T15:28:46;11.83;;;6.00;;
5622;SDS011;2833;50.432;10.706;2023-01-16T15:31:17;5.83;;;3.43;;
5622;SDS011;2833;50.432;10.706;2023-01-16T15:33:42;6.53;;;2.70;;
5622;SDS011;2833;50.432;10.706;2023-01-16T15:36:55;5.20;;;3.70;;
5622;SDS011;2833;50.432;10.706;2023-01-16T15:38:58;5.77;;;2.90;;
5622;SDS011;2833;50.432;10.706;2023-01-16T15:41:27;7.10;;;3.57;;
5622;SDS011;2833;50.432;10.706;2023-01-16T15:44:12;2.67;;;1.90;;
5622;SDS011;2833;50.432;10.706;2023-01-16T15:47:21;4.20;;;2.60;;
5622;SDS011;2833;50.432;10.706;2023-01-16T15:52:27;4.63;;;4.07;;
5622;SDS011;2833;50.432;10.706;2023-01-16T15:54:52;3.97;;;2.57;;
5622;SDS011;2833;50.432;10.706;2023-01-16T15:57:17;4.83;;;4.00;;
5622;SDS011;2833;50.432;10.706;2023-01-16T15:59:55;4.80;;;3.87;;
5622;SDS011;2833;50.432;10.706;2023-01-16T16:02:24;5.03;;;4.00;;
5622;SDS011;2833;50.432;10.706;2023-01-16T16:04:53;18.27;;;13.40;;
5622;SDS011;2833;50.432;10.706;2023-01-16T16:07:20;14.47;;;10.00;;
5622;SDS011;2833;50.432;10.706;2023-01-16T16:09:46;6.73;;;5.23;;
5622;SDS011;2833;50.432;10.706;2023-01-16T16:12:12;6.27;;;4.30;;
5622;SDS011;2833;50.432;10.706;2023-01-16T16:14:37;12.63;;;8.63;;
5622;SDS011;2833;50.432;10.706;2023-01-16T16:17:35;5.80;;;4.47;;
5622;SDS011;2833;50.432;10.706;2023-01-16T16:25:49;3.80;;;2.93;;
5622;SDS011;2833;50.432;10.706;2023-01-16T16:28:22;2.50;;;2.30;;
5622;SDS011;2833;50.432;10.706;2023-01-16T16:33:32;5.23;;;4.17;;
5622;SDS011;2833;50.432;10.706;2023-01-16T16:36:00;41.73;;;15.23;;
5622;SDS011;2833;50.432;10.706;2023-01-16T16:38:30;235.03;;;65.97;;
5622;SDS011;2833;50.432;10.706;2023-01-16T16:43:41;245.40;;;84.43;;
5622;SDS011;2833;50.432;10.706;2023-01-16T16:46:27;10.93;;;5.33;;
5622;SDS011;2833;50.432;10.706;2023-01-16T16:48:55;88.07;;;25.37;;
5622;SDS011;2833;50.432;10.706;2023-01-16T16:51:28;26.47;;;12.43;;
5622;SDS011;2833;50.432;10.706;2023-01-16T16:53:56;38.07;;;13.60;;
5622;SDS011;2833;50.432;10.706;2023-01-16T16:56:22;43.80;;;17.60;;
5622;SDS011;2833;50.432;10.706;2023-01-16T16:58:49;53.03;;;24.00;;
5622;SDS011;2833;50.432;10.706;2023-01-16T17:01:16;25.40;;;14.60;;
5622;SDS011;2833;50.432;10.706;2023-01-16T17:03:42;38.97;;;18.23;;
5622;SDS011;2833;50.432;10.706;2023-01-16T17:06:12;218.40;;;60.60;;
5622;SDS011;2833;50.432;10.706;2023-01-16T17:08:38;218.00;;;65.97;;
5622;SDS011;2833;50.432;10.706;2023-01-16T17:11:03;193.13;;;52.90;;
5622;SDS011;2833;50.432;10.706;2023-01-16T17:13:28;156.83;;;50.13;;
5622;SDS011;2833;50.432;10.706;2023-01-16T17:15:54;138.63;;;45.93;;
5622;SDS011;2833;50.432;10.706;2023-01-16T17:18:20;98.10;;;33.83;;
5622;SDS011;2833;50.432;10.706;2023-01-16T17:20:47;119.40;;;39.27;;
5622;SDS011;2833;50.432;10.706;2023-01-16T17:23:13;90.00;;;30.77;;
5622;SDS011;2833;50.432;10.706;2023-01-16T17:25:38;46.73;;;21.13;;
5622;SDS011;2833;50.432;10.706;2023-01-16T17:28:04;62.33;;;27.90;;
5622;SDS011;2833;50.432;10.706;2023-01-16T17:30:29;11.93;;;7.40;;
5622;SDS011;2833;50.432;10.706;2023-01-16T17:33:05;25.17;;;13.53;;
5622;SDS011;2833;50.432;10.706;2023-01-16T17:35:35;26.77;;;13.87;;
5622;SDS011;2833;50.432;10.706;2023-01-16T17:38:00;10.43;;;6.30;;